Terminal Aerodrome Forecast
Issued by NWS

Home | Current Version | Previous Version | Text Only | Print | Product List | Glossary On
Versions: 1 2 3 4 5 6 7 8 9 10 11 12 13 14 15 16
000
FTUS45 KABQ 061700
TAFFMN
TAF
KFMN 061732Z 0618/0718 27010G18KT P6SM VCSH FEW040 BKN060
     FM062200 26012G20KT P6SM VCTS BKN050CB
     FM070200 25007KT P6SM SCT050 SCT120
     FM070800 09006KT P6SM SCT035 SCT120
     FM071600 14006KT P6SM FEW050=

USA.gov is the U.S. government's official web portal to all federal, state and local government web resources and services.